ROMMA est une association bénévole à but non lucratif. Votre soutien est indispensable : ADHERER à ROMMA ou FAIRE un DON

St-Christophe/Guiers - Berland - (38, Isère)

Massif de la Chartreuse (533 m)   Longitude: 05° 46' 44" E   Latitude: 45° 25' 43" N Station partenaire n°32
 

Détail journalier du     <<     >>

Température Precipitation Humidité Pression Vent Dir Rafale Dir. rafale Ensol.
Heure (°C) (mm) (%) (hPa) (km/h) (km/h) (min)
01:00 11.805610203E8SO0
02:00 10.306510204ENE10ENE0
03:00 10.805610204ENE10E0
04:00 11.005310192ENE6ENE0
05:00 10.8058101903ENE0
06:00 10.6059101800---0
07:00 10.206310182ENE6SSO0
08:00 10.506810191---6NNE0
09:00 10.807010181---8E0
10:00 11.6068101800---0
11:00 11.6069101800---0
12:00 12.207410172O6S0
13:00 12.906810172S10ONO0
14:00 16.205610163ONO11SE0
15:00 17.504110158NE32NE15
16:00 17.8037101410NE31ENE15
17:00 19.204510147ONO29N40
18:00 18.604110135NE16ENE35
19:00 18.103910134NE19ENE10
20:00 16.304910132---11NNO5
21:00 13.2059101300---0
22:00 13.505810132ENE11NE0
23:00 12.606010124ENE15ENE0
minuit 11.906310123ENE8ENE0

Graphique du 21-04-2019

 

Serveur OMMA